Time;durP1;ratioP1;P1;durP2;ratioP2;P2;SDS_P1;SDS_P2;PMS_P1;PMS_P2;Temp;Humidity;BMP_temperature;BMP_pressure;BME280_temperature;BME280_humidity;BME280_pressure;Samples;Min_cycle;Max_cycle;Signal;HPM_P1;HPM_P2
2022/05/14 00:02:11;;;;;;;8.50;1.98;;;;;;;9.76;56.38;98744.72;4821920;29;20045;-81
2022/05/14 00:04:38;;;;;;;4.15;1.75;;;;;;;9.89;56.17;98774.72;4821966;29;20415;-81
2022/05/14 00:07:04;;;;;;;3.92;2.10;;;;;;;9.89;56.39;98777.31;4805469;29;20053;-81
2022/05/14 00:09:30;;;;;;;6.65;1.70;;;;;;;9.89;56.26;98774.72;4805317;29;20053;-80
2022/05/14 00:14:40;;;;;;;5.80;2.25;;;;;;;9.86;56.37;98773.94;4821679;29;20042;-83
2022/05/14 00:17:07;;;;;;;8.25;2.10;;;;;;;9.83;56.09;98777.44;4822291;29;20427;-81
2022/05/14 00:19:33;;;;;;;5.70;2.15;;;;;;;9.77;56.30;98777.59;4821468;29;20046;-80
2022/05/14 00:21:59;;;;;;;6.57;2.20;;;;;;;9.76;56.36;98779.34;4822341;29;20038;-80
2022/05/14 00:24:26;;;;;;;4.05;2.00;;;;;;;9.72;56.72;98767.28;4821838;29;20528;-81
2022/05/14 00:26:52;;;;;;;5.82;1.70;;;;;;;9.64;56.76;98757.06;4822908;29;20046;-78
2022/05/14 00:29:18;;;;;;;4.47;1.70;;;;;;;9.63;56.67;98759.72;4825585;29;20046;-81
2022/05/14 00:31:44;;;;;;;3.53;1.40;;;;;;;9.71;56.73;98769.94;4809743;29;20066;-79
2022/05/14 00:34:10;;;;;;;3.75;1.52;;;;;;;9.65;56.49;98773.53;4807174;29;20038;-80
2022/05/14 00:36:37;;;;;;;6.05;1.85;;;;;;;9.60;56.99;98767.56;4821364;29;20114;-79
2022/05/14 00:39:03;;;;;;;5.10;1.77;;;;;;;9.67;56.86;98776.94;4823188;29;20130;-81
2022/05/14 00:41:29;;;;;;;2.92;1.63;;;;;;;9.67;57.07;98776.09;4809017;29;20058;-80
2022/05/14 00:43:58;;;;;;;3.50;1.45;;;;;;;9.61;56.64;98764.94;4809143;29;20054;-82
2022/05/14 00:46:57;;;;;;;6.20;1.60;;;;;;;9.63;56.91;98770.09;4823190;29;20046;-80
2022/05/14 00:49:24;;;;;;;4.72;1.60;;;;;;;9.57;56.97;98763.31;4788599;29;20056;-80
2022/05/14 00:51:51;;;;;;;7.03;2.03;;;;;;;9.60;56.82;98767.56;4824189;29;20062;-81
2022/05/14 00:54:25;;;;;;;8.15;2.50;;;;;;;9.50;57.03;98759.97;4820119;29;20419;-79
2022/05/14 00:56:58;;;;;;;6.90;2.20;;;;;;;9.37;56.99;98736.91;4824098;29;20052;-80
2022/05/14 00:59:26;;;;;;;5.10;2.10;;;;;;;9.38;57.36;98739.47;4809119;29;20408;-81
2022/05/14 01:01:54;;;;;;;3.90;2.00;;;;;;;9.47;57.02;98741.00;4823942;29;20057;-83
2022/05/14 01:04:21;;;;;;;6.25;1.80;;;;;;;9.54;57.33;98758.19;4808813;29;20073;-80
2022/05/14 01:06:57;;;;;;;4.70;1.60;;;;;;;9.53;57.15;98756.47;4808493;29;20126;-81
2022/05/14 01:09:24;;;;;;;3.63;1.70;;;;;;;9.35;57.15;98729.13;4824097;29;20050;-81
2022/05/14 01:11:54;;;;;;;3.63;1.88;;;;;;;9.57;57.24;98759.84;4823622;29;20042;-79
2022/05/14 01:14:21;;;;;;;4.38;1.50;;;;;;;9.58;57.34;98759.81;4824470;29;20550;-80
2022/05/14 01:16:50;;;;;;;3.38;1.60;;;;;;;9.56;57.06;98755.53;4823177;29;20056;-79
2022/05/14 01:19:17;;;;;;;4.35;1.73;;;;;;;9.60;57.12;98763.22;4823257;29;20046;-79
2022/05/14 01:22:05;;;;;;;3.95;1.95;;;;;;;9.60;57.44;98765.81;4807574;29;20046;-81
2022/05/14 01:27:37;;;;;;;6.63;2.00;;;;;;;9.57;57.37;98759.84;4823209;29;20163;-82
2022/05/14 01:30:05;;;;;;;3.88;1.70;;;;;;;9.33;57.26;98721.41;4824523;29;20046;-82
2022/05/14 01:32:31;;;;;;;5.63;2.20;;;;;;;9.42;56.99;98729.84;4823533;29;20165;-80
2022/05/14 01:34:57;;;;;;;4.88;1.92;;;;;;;9.49;57.77;98750.47;4822957;29;20515;-78
2022/05/14 01:37:24;;;;;;;4.97;2.08;;;;;;;9.59;57.54;98756.34;4792666;29;20046;-81
2022/05/14 01:39:52;;;;;;;6.88;1.77;;;;;;;9.58;57.67;98741.66;4823167;29;20050;-79
2022/05/14 01:42:19;;;;;;;6.82;1.60;;;;;;;9.61;57.43;98745.91;4823161;29;20229;-80
2022/05/14 01:44:45;;;;;;;4.13;1.85;;;;;;;9.65;57.66;98752.75;4794606;29;20103;-81
2022/05/14 01:47:11;;;;;;;4.15;1.60;;;;;;;9.56;57.57;98732.16;4808897;29;20050;-78
2022/05/14 01:49:38;;;;;;;2.90;1.40;;;;;;;9.68;57.53;98746.63;4808306;29;20418;-80
2022/05/14 01:52:04;;;;;;;6.22;1.95;;;;;;;9.71;57.27;98742.19;4822719;29;20057;-79
2022/05/14 01:54:30;;;;;;;4.00;1.60;;;;;;;9.79;57.23;98749.84;4822363;29;20046;-79
2022/05/14 01:56:56;;;;;;;5.00;1.60;;;;;;;9.74;57.13;98743.91;4822616;29;20053;-79
2022/05/14 01:59:22;;;;;;;3.65;1.52;;;;;;;9.77;57.51;98747.28;4823013;29;20106;-83
2022/05/14 02:01:48;;;;;;;5.72;2.00;;;;;;;9.86;57.05;98756.59;4823024;29;20495;-77
2022/05/14 02:04:15;;;;;;;3.67;1.58;;;;;;;9.88;57.32;98760.03;4809197;29;20106;-81
2022/05/14 02:06:43;;;;;;;5.85;1.65;;;;;;;9.91;56.96;98757.34;4821943;29;20103;-80
2022/05/14 02:09:12;;;;;;;4.22;1.70;;;;;;;9.88;57.09;98744.44;4807275;29;20050;-82
2022/05/14 02:11:42;;;;;;;8.07;1.85;;;;;;;9.99;56.97;98751.13;4822294;29;20057;-81
2022/05/14 02:14:18;;;;;;;6.50;2.00;;;;;;;9.91;57.14;98744.38;4806682;29;20049;-80
2022/05/14 02:16:43;;;;;;;6.47;1.90;;;;;;;9.95;57.09;98748.59;4823312;29;20054;-81
2022/05/14 02:19:10;;;;;;;4.93;1.60;;;;;;;10.08;56.83;98767.38;4822953;29;20042;-81
2022/05/14 02:21:36;;;;;;;5.03;1.80;;;;;;;10.04;57.13;98747.53;4809946;29;20118;-81
2022/05/14 02:24:02;;;;;;;4.00;1.73;;;;;;;10.09;56.84;98743.09;4824545;29;20042;-81
2022/05/14 02:26:29;;;;;;;4.88;1.63;;;;;;;10.18;56.88;98744.63;4822893;29;20049;-79
2022/05/14 02:28:56;;;;;;;3.58;1.80;;;;;;;10.28;56.45;98755.63;4808170;29;20076;-79
2022/05/14 02:31:22;;;;;;;5.35;1.60;;;;;;;10.27;56.59;98747.84;4828250;29;20159;-82
2022/05/14 02:33:48;;;;;;;5.18;1.63;;;;;;;10.35;56.67;98764.13;4823795;29;20070;-80
2022/05/14 02:36:14;;;;;;;5.43;1.55;;;;;;;10.32;56.67;98746.88;4822755;29;20050;-80
2022/05/14 02:38:40;;;;;;;4.68;1.90;;;;;;;10.45;56.21;98767.41;4792139;29;20050;-79
2022/05/14 02:41:08;;;;;;;3.33;1.52;;;;;;;10.29;56.21;98733.94;4806232;29;20133;-80
2022/05/14 02:43:35;;;;;;;5.60;1.70;;;;;;;10.30;56.39;98729.59;4791537;29;20073;-79
2022/05/14 02:46:02;;;;;;;5.35;1.50;;;;;;;10.59;55.86;98775.72;4806961;29;20042;-81
2022/05/14 02:48:28;;;;;;;5.63;1.70;;;;;;;10.41;56.24;98740.63;4821712;29;20058;-83
2022/05/14 02:50:57;;;;;;;1.70;1.40;;;;;;;10.40;55.89;98746.72;4806944;29;20042;-80
2022/05/14 02:53:23;;;;;;;4.88;1.55;;;;;;;10.65;56.04;98772.94;4805851;29;20137;-80
2022/05/14 02:55:49;;;;;;;5.80;1.92;;;;;;;10.56;55.79;98760.19;4821359;29;20050;-78
2022/05/14 02:59:06;;;;;;;4.82;1.30;;;;;;;10.71;55.68;98774.53;4791553;29;20050;-78
2022/05/14 03:01:03;;;;;;;5.70;1.77;;;;;;;10.87;55.89;98779.34;4805932;29;20058;-78
2022/05/14 03:03:29;;;;;;;4.20;1.55;;;;;;;10.83;55.55;98765.56;4806393;29;20046;-81
2022/05/14 03:05:55;;;;;;;6.68;1.40;;;;;;;10.87;55.30;98768.94;4820835;29;20420;-79
2022/05/14 03:08:20;;;;;;;4.93;2.08;;;;;;;10.93;55.49;98756.63;4805893;29;20057;-82
2022/05/14 03:10:46;;;;;;;3.70;1.55;;;;;;;10.81;55.10;98744.78;4823060;29;20630;-79
2022/05/14 03:13:13;;;;;;;4.43;2.00;;;;;;;10.96;54.68;98773.91;4805713;29;20050;-80
2022/05/14 03:15:39;;;;;;;3.92;1.60;;;;;;;11.06;54.88;98783.19;4822837;29;20049;-78
2022/05/14 03:18:05;;;;;;;2.60;1.50;;;;;;;11.14;54.98;98777.75;4822307;29;20050;-79
2022/05/14 03:20:32;;;;;;;5.95;1.90;;;;;;;11.21;54.86;98776.69;4823043;29;20125;-81
2022/05/14 03:22:58;;;;;;;4.45;1.73;;;;;;;11.27;54.72;98778.28;4807207;29;20134;-78
2022/05/14 03:25:25;;;;;;;4.63;1.42;;;;;;;11.10;54.63;98727.53;4809538;29;20729;-80
2022/05/14 03:27:51;;;;;;;9.40;2.00;;;;;;;11.52;54.15;98778.41;4808138;29;20057;-78
2022/05/14 03:30:18;;;;;;;3.53;1.60;;;;;;;11.69;54.71;98783.13;4822612;29;20085;-78
2022/05/14 03:32:44;;;;;;;5.15;1.85;;;;;;;11.83;54.25;98774.03;4805879;29;20459;-81
2022/05/14 03:35:10;;;;;;;3.38;1.65;;;;;;;11.92;53.76;98765.94;4807358;29;20042;-81
2022/05/14 03:37:37;;;;;;;6.10;2.00;;;;;;;12.07;53.38;98777.69;4806643;29;20042;-77
2022/05/14 03:40:04;;;;;;;6.10;1.85;;;;;;;12.21;53.59;98779.88;4807767;29;20565;-82
2022/05/14 03:42:31;;;;;;;4.85;1.50;;;;;;;11.95;53.19;98741.53;4806919;29;20078;-81
2022/05/14 03:44:58;;;;;;;5.65;2.00;;;;;;;11.99;53.11;98741.44;4824422;29;20042;-81
2022/05/14 03:47:24;;;;;;;6.55;1.85;;;;;;;12.25;53.02;98785.84;4819547;29;20422;-80
2022/05/14 03:49:50;;;;;;;4.20;1.50;;;;;;;12.19;53.16;98771.25;4833942;29;20046;-82
2022/05/14 03:52:17;;;;;;;4.20;1.67;;;;;;;12.18;52.82;98759.09;4796869;29;20195;-80
2022/05/14 03:54:45;;;;;;;4.57;1.95;;;;;;;12.26;52.62;98775.34;4825078;29;20467;-82
2022/05/14 03:57:13;;;;;;;6.50;1.85;;;;;;;12.28;52.78;98770.94;4812244;29;20049;-77
2022/05/14 03:59:40;;;;;;;5.15;2.40;;;;;;;12.48;52.69;98782.47;4813335;29;20193;-79
2022/05/14 04:02:07;;;;;;;5.50;1.80;;;;;;;12.58;52.44;98783.03;4834862;29;20046;-79
2022/05/14 04:04:34;;;;;;;3.63;1.50;;;;;;;12.67;52.05;98789.72;4828864;29;20083;-78
2022/05/14 04:07:00;;;;;;;6.38;1.70;;;;;;;12.68;51.71;98773.97;4837308;29;20058;-81
2022/05/14 04:09:29;;;;;;;5.32;1.77;;;;;;;12.34;51.81;98697.69;4808492;29;20133;-80
2022/05/14 04:11:55;;;;;;;3.28;1.50;;;;;;;12.40;51.22;98701.00;4807598;29;20071;-80
2022/05/14 04:14:22;;;;;;;3.40;1.58;;;;;;;13.20;51.33;98775.69;4821503;29;20545;-80
2022/05/14 04:16:51;;;;;;;2.03;1.38;;;;;;;13.47;51.01;98776.47;4806023;29;20597;-79
2022/05/14 04:19:19;;;;;;;4.35;1.55;;;;;;;13.79;50.81;98763.94;4806352;29;20046;-80
2022/05/14 04:21:47;;;;;;;6.88;1.75;;;;;;;13.65;49.89;98727.03;4790786;29;20050;-82
2022/05/14 04:24:14;;;;;;;5.53;1.30;;;;;;;13.28;49.85;98678.75;4805977;29;20045;-81
2022/05/14 04:26:41;;;;;;;2.88;1.35;;;;;;;13.81;49.76;98764.72;4823111;29;20426;-82
2022/05/14 04:29:08;;;;;;;5.45;1.70;;;;;;;13.82;49.38;98755.97;4809551;29;20067;-80
2022/05/14 04:31:35;;;;;;;5.60;1.77;;;;;;;14.03;49.35;98769.13;4824693;29;20069;-82
2022/05/14 04:34:01;;;;;;;6.10;1.50;;;;;;;14.07;49.07;98752.41;4824814;29;20133;-79
2022/05/14 04:36:27;;;;;;;2.72;1.70;;;;;;;14.26;49.07;98772.56;4809559;29;20525;-80
2022/05/14 04:38:54;;;;;;;3.38;1.42;;;;;;;14.26;48.66;98738.56;4824382;29;20042;-80
2022/05/14 04:41:20;;;;;;;5.00;1.85;;;;;;;14.33;48.07;98736.56;4825918;29;20107;-80
2022/05/14 04:43:47;;;;;;;9.55;5.30;;;;;;;14.61;48.69;98755.41;4814613;29;20042;-81
2022/05/14 04:46:14;;;;;;;9.65;4.43;;;;;;;14.78;48.06;98748.66;4836093;29;20046;-80
2022/05/14 04:48:40;;;;;;;7.10;3.22;;;;;;;15.06;47.74;98761.41;4818770;29;20042;-79
2022/05/14 04:51:06;;;;;;;6.68;1.92;;;;;;;15.27;47.24;98756.13;4828234;29;20054;-79
2022/05/14 04:53:50;;;;;;;8.88;1.90;;;;;;;15.32;46.73;98738.44;4844641;29;20035;-81
2022/05/14 04:56:24;;;;;;;2.95;1.58;;;;;;;15.13;46.49;98721.81;4828557;29;20047;-79
2022/05/14 04:58:51;;;;;;;5.10;2.08;;;;;;;15.38;46.53;98749.53;4813485;29;20050;-80
2022/05/14 05:01:20;;;;;;;7.30;1.70;;;;;;;15.34;46.19;98752.31;4823493;29;20046;-78
2022/05/14 05:03:58;;;;;;;9.57;1.70;;;;;;;15.44;46.11;98757.13;4809506;29;20049;-81
2022/05/14 05:06:25;;;;;;;3.90;1.65;;;;;;;15.45;45.89;98754.44;4823594;29;20050;-81
2022/05/14 05:08:52;;;;;;;4.93;1.55;;;;;;;15.44;45.83;98741.41;4824224;29;20030;-82
2022/05/14 05:11:19;;;;;;;4.70;1.55;;;;;;;15.38;45.46;98731.19;4825756;29;20065;-79
2022/05/14 05:13:48;;;;;;;2.85;1.60;;;;;;;15.79;45.57;98738.91;4825523;29;20075;-81
2022/05/14 05:16:14;;;;;;;5.07;1.30;;;;;;;16.03;45.18;98752.69;4843399;29;20038;-81
2022/05/14 05:18:42;;;;;;;4.68;1.55;;;;;;;16.19;44.86;98744.06;4825094;29;20033;-81
2022/05/14 05:21:08;;;;;;;3.08;1.10;;;;;;;16.40;44.56;98743.00;4837603;29;20073;-79
2022/05/14 05:23:37;;;;;;;4.00;1.50;;;;;;;16.38;44.29;98705.47;4836797;29;20070;-81
2022/05/14 05:26:06;;;;;;;3.88;1.50;;;;;;;16.90;43.63;98724.75;4826130;29;20387;-81
2022/05/14 05:28:32;;;;;;;5.93;1.63;;;;;;;17.17;42.86;98737.41;4826043;29;20029;-81
2022/05/14 05:30:58;;;;;;;2.90;1.33;;;;;;;17.07;42.84;98710.75;4826028;29;20069;-81
2022/05/14 05:33:25;;;;;;;4.05;1.77;;;;;;;17.64;42.91;98741.03;4825623;29;20058;-80
2022/05/14 05:35:52;;;;;;;3.67;1.50;;;;;;;18.74;42.13;98718.16;4842390;29;20042;-81
2022/05/14 05:38:18;;;;;;;5.38;1.60;;;;;;;20.59;40.00;98713.53;4807516;29;20046;-81
2022/05/14 05:40:44;;;;;;;4.68;1.35;;;;;;;21.43;37.52;98720.22;4827984;29;20053;-82
2022/05/14 05:43:14;;;;;;;5.15;1.33;;;;;;;21.91;36.32;98727.41;4844166;29;20608;-81
2022/05/14 05:45:47;;;;;;;1.63;1.35;;;;;;;22.12;35.27;98669.38;4828404;29;20042;-81
2022/05/14 05:48:24;;;;;;;4.75;1.50;;;;;;;22.15;34.31;98589.66;4822111;29;20051;-81
2022/05/14 05:50:50;;;;;;;4.82;1.48;;;;;;;22.66;33.38;98651.19;4813541;29;20050;-80
2022/05/14 05:59:00;;;;;;;2.03;1.15;;;;;;;25.29;30.88;98691.78;4820506;29;20572;-80
2022/05/14 06:01:26;;;;;;;3.47;1.10;;;;;;;26.49;29.68;98674.00;4824933;29;20046;-81
2022/05/14 06:04:00;;;;;;;1.77;1.17;;;;;;;27.76;28.60;98688.69;4810364;29;20070;-82
2022/05/14 06:06:26;;;;;;;3.30;1.35;;;;;;;29.06;27.98;98702.44;4813462;29;20042;-81
2022/05/14 06:08:53;;;;;;;3.17;1.10;;;;;;;30.29;26.50;98690.44;4844434;29;20032;-80
2022/05/14 06:11:19;;;;;;;4.53;1.10;;;;;;;31.79;25.28;98707.84;4842745;29;20109;-79
2022/05/14 06:13:46;;;;;;;2.30;0.95;;;;;;;32.42;23.47;98675.44;4840478;29;20122;-81
2022/05/14 06:16:15;;;;;;;1.60;1.02;;;;;;;33.15;22.36;98671.31;4823180;29;20038;-80
2022/05/14 06:18:44;;;;;;;1.58;1.05;;;;;;;33.84;21.63;98690.78;4826191;29;20042;-80
2022/05/14 06:21:13;;;;;;;3.63;0.90;;;;;;;34.94;21.14;98683.25;4841172;29;20056;-80
2022/05/14 06:23:39;;;;;;;5.05;1.10;;;;;;;34.81;19.89;98672.34;4810126;29;20030;-82
2022/05/14 06:26:09;;;;;;;2.03;0.90;;;;;;;33.41;19.06;98696.97;4822115;29;20057;-82
2022/05/14 06:28:51;;;;;;;5.18;1.42;;;;;;;33.35;19.83;98704.75;4813677;29;20058;-80
2022/05/14 06:31:29;;;;;;;2.20;1.20;;;;;;;33.80;19.26;98650.72;4817885;29;20118;-79
2022/05/14 06:33:59;;;;;;;5.50;1.27;;;;;;;33.37;19.11;98593.25;4819425;29;20061;-82
2022/05/14 06:36:43;;;;;;;2.58;1.00;;;;;;;32.45;19.12;98585.41;4830116;29;20042;-82
2022/05/14 06:39:23;;;;;;;4.63;1.00;;;;;;;33.58;18.73;98684.94;4818446;29;20057;-81
2022/05/14 06:42:07;;;;;;;4.00;0.90;;;;;;;35.01;18.10;98642.75;4825957;29;20107;-81
2022/05/14 06:44:43;;;;;;;2.92;1.10;;;;;;;36.51;17.81;98632.88;4812806;29;20283;-80
2022/05/14 06:47:09;;;;;;;5.97;1.25;;;;;;;37.33;16.94;98680.38;4810722;29;20030;-81
2022/05/14 06:49:35;;;;;;;4.38;1.20;;;;;;;37.45;16.09;98594.59;4842981;29;20067;-81
2022/05/14 06:52:42;;;;;;;5.63;1.10;;;;;;;38.29;15.27;98688.56;4841604;29;20046;-80
2022/05/14 06:55:16;;;;;;;1.52;1.02;;;;;;;37.32;16.02;98564.84;4758675;30;20040;-82
2022/05/14 06:57:42;;;;;;;1.75;1.17;;;;;;;37.67;15.51;98640.38;4742777;30;20047;-81
2022/05/14 07:00:24;;;;;;;3.08;1.05;;;;;;;36.22;15.16;98558.31;4786556;29;20061;-81
2022/05/14 07:06:37;;;;;;;4.32;1.08;;;;;;;35.25;15.58;98581.09;4799947;29;20038;-81
2022/05/14 07:08:26;;;;;;;1.73;1.30;;;;;;;36.06;16.34;98619.16;4800115;29;20050;-83
2022/05/14 07:10:55;;;;;;;1.95;1.05;;;;;;;37.25;15.71;98551.34;4815217;29;20054;-81
2022/05/14 07:13:23;;;;;;;3.50;1.10;;;;;;;38.30;14.63;98542.78;4829478;29;20201;-80
2022/05/14 07:15:54;;;;;;;3.33;0.90;;;;;;;38.61;13.68;98554.63;4837246;29;20026;-80
2022/05/14 07:18:20;;;;;;;2.83;1.10;;;;;;;36.98;13.69;98546.06;4810483;29;20099;-80
2022/05/14 07:20:50;;;;;;;5.07;1.05;;;;;;;36.92;14.18;98604.63;4819651;29;20129;-81
2022/05/14 07:23:20;;;;;;;3.15;0.90;;;;;;;36.77;13.65;98552.56;4803087;29;20046;-80
2022/05/14 07:26:34;;;;;;;3.78;1.40;;;;;;;37.14;14.04;98661.28;4834307;29;20044;-81
2022/05/14 07:29:04;;;;;;;2.42;1.05;;;;;;;36.74;13.66;98658.69;4792540;29;20141;-82
2022/05/14 07:31:39;;;;;;;4.10;1.15;;;;;;;34.34;14.77;98626.09;4838882;29;20069;-80
2022/05/14 07:34:07;;;;;;;6.85;1.17;;;;;;;34.26;15.09;98596.56;4820315;29;20059;-81
2022/05/14 07:37:05;;;;;;;2.42;1.70;;;;;;;35.70;15.34;98669.84;4821673;29;20054;-82
2022/05/14 07:39:48;;;;;;;3.08;1.15;;;;;;;37.45;14.52;98648.84;4814212;29;20637;-80
2022/05/14 07:42:25;;;;;;;5.15;2.10;;;;;;;38.11;13.37;98599.78;4813041;29;20080;-79
2022/05/14 07:45:03;;;;;;;4.32;2.20;;;;;;;39.27;13.35;98524.91;4824993;29;20053;-79
2022/05/14 07:47:30;;;;;;;2.28;1.40;;;;;;;40.71;12.78;98625.59;4808691;29;20133;-80
2022/05/14 07:50:02;;;;;;;4.28;1.42;;;;;;;41.07;12.66;98641.81;4824423;29;20050;-82
2022/05/14 07:52:30;;;;;;;13.73;4.70;;;;;;;40.66;12.87;98644.53;4793516;29;20537;-82
2022/05/14 07:55:03;;;;;;;5.18;1.27;;;;;;;39.21;12.80;98567.44;4794023;29;20039;-81
2022/05/14 07:57:32;;;;;;;6.03;2.47;;;;;;;36.70;13.28;98631.16;4808598;29;20073;-84
2022/05/14 07:59:59;;;;;;;4.65;1.65;;;;;;;34.24;14.73;98531.97;4822712;29;20042;-81
2022/05/14 08:02:44;;;;;;;8.93;2.85;;;;;;;33.17;15.05;98513.03;4812089;29;20400;-81
2022/05/14 08:05:29;;;;;;;3.90;2.00;;;;;;;34.47;15.40;98650.53;4828926;29;20038;-81
2022/05/14 08:07:58;;;;;;;6.90;3.50;;;;;;;32.53;15.85;98541.44;4813526;29;20430;-80
2022/05/14 08:10:25;;;;;;;5.75;1.55;;;;;;;31.62;16.53;98647.09;4814693;29;20070;-81
2022/05/14 08:13:03;;;;;;;2.65;1.15;;;;;;;31.19;17.35;98663.59;4815551;29;20081;-80
2022/05/14 08:15:29;;;;;;;4.20;3.25;;;;;;;29.95;17.54;98560.00;4815616;29;20046;-79
2022/05/14 08:17:58;;;;;;;9.85;5.28;;;;;;;29.37;17.86;98664.47;4832477;29;20046;-79
2022/05/14 08:20:25;;;;;;;5.10;2.10;;;;;;;27.87;19.04;98628.84;4819207;29;20046;-79
2022/05/14 08:25:38;;;;;;;10.77;6.57;;;;;;;26.15;20.60;98648.66;4824995;29;20038;-82
2022/05/14 08:28:10;;;;;;;3.60;2.22;;;;;;;26.12;21.26;98660.47;4826605;29;20065;-78
2022/05/14 08:30:45;;;;;;;12.60;9.50;;;;;;;28.49;20.97;98636.00;4841154;29;20046;-80
2022/05/14 08:33:29;;;;;;;5.65;2.22;;;;;;;30.34;18.85;98540.50;4824769;29;20073;-80
2022/05/14 08:36:13;;;;;;;2.92;1.08;;;;;;;31.22;18.21;98534.31;4808668;29;20107;-82
2022/05/14 08:38:45;;;;;;;4.93;2.67;;;;;;;32.17;18.02;98558.28;4821040;29;20106;-81
2022/05/14 08:41:23;;;;;;;3.08;1.20;;;;;;;33.88;17.25;98559.94;4828167;29;20054;-81
2022/05/14 08:44:26;;;;;;;6.13;1.70;;;;;;;32.57;16.86;98639.63;4797066;29;20045;-82
2022/05/14 08:46:59;;;;;;;6.38;2.13;;;;;;;29.36;17.81;98577.06;4797592;29;20103;-83
2022/05/14 08:50:07;;;;;;;8.13;4.68;;;;;;;26.05;19.18;98445.25;4813424;29;20054;-82
2022/05/14 08:53:16;;;;;;;7.25;2.60;;;;;;;24.60;21.28;98593.94;4808218;29;20077;-82
2022/05/14 08:56:04;;;;;;;6.40;2.40;;;;;;;23.86;22.15;98653.25;4821039;29;20416;-78
2022/05/14 08:58:35;;;;;;;6.53;2.28;;;;;;;22.91;23.39;98666.06;4827168;29;20065;-81
2022/05/14 09:01:04;;;;;;;5.40;1.92;;;;;;;22.17;24.27;98643.38;4796569;29;20042;-81
2022/05/14 09:03:32;;;;;;;5.40;1.60;;;;;;;22.14;24.15;98664.78;4811849;29;20057;-81
2022/05/14 09:06:02;;;;;;;5.28;1.40;;;;;;;21.93;24.09;98656.63;4811221;29;20058;-83
2022/05/14 09:08:36;;;;;;;6.10;1.65;;;;;;;21.30;24.62;98628.47;4826314;29;20058;-81
2022/05/14 09:11:16;;;;;;;5.65;1.15;;;;;;;20.89;24.92;98649.00;4810283;29;20060;-83
2022/05/14 09:14:00;;;;;;;3.97;1.30;;;;;;;20.73;25.48;98662.41;4810745;29;20329;-82
2022/05/14 09:16:30;;;;;;;8.60;4.90;;;;;;;20.58;25.98;98671.38;4800730;29;20054;-80
2022/05/14 09:19:19;;;;;;;17.02;10.70;;;;;;;20.62;26.42;98662.31;4811780;29;20053;-80
2022/05/14 09:21:56;;;;;;;3.08;1.50;;;;;;;20.34;26.35;98665.94;4796080;29;20462;-78
2022/05/14 09:24:26;;;;;;;2.75;1.60;;;;;;;19.98;26.94;98633.97;4809025;29;20038;-81
2022/05/14 09:26:55;;;;;;;4.03;2.28;;;;;;;19.96;27.04;98649.09;4826197;29;20571;-81
2022/05/14 09:29:29;;;;;;;6.22;3.67;;;;;;;20.07;26.87;98653.66;4810734;29;20050;-81
2022/05/14 09:32:00;;;;;;;7.82;4.22;;;;;;;20.02;27.43;98654.81;4827701;29;20081;-79
2022/05/14 09:34:35;;;;;;;3.60;0.90;;;;;;;20.25;27.64;98656.84;4810564;29;20102;-81
2022/05/14 09:37:13;;;;;;;3.13;1.58;;;;;;;20.84;27.20;98645.81;4796288;29;20577;-82
2022/05/14 09:39:40;;;;;;;4.38;1.80;;;;;;;22.48;26.32;98613.72;4827255;29;20082;-81
2022/05/14 09:42:21;;;;;;;5.35;1.48;;;;;;;22.88;25.34;98594.69;4827048;29;20046;-79
2022/05/14 09:44:49;;;;;;;;;;;;;;;23.27;25.27;98634.94;4825526;29;20253;-80
2022/05/14 09:47:27;;;;;;;9.98;4.57;;;;;;;24.46;25.09;98615.53;4826385;29;19931;-80
2022/05/14 09:49:58;;;;;;;4.18;1.77;;;;;;;25.23;24.18;98611.53;4810222;29;20042;-80
2022/05/14 09:52:27;;;;;;;2.40;1.20;;;;;;;25.05;23.98;98629.09;4809908;29;20065;-79
2022/05/14 09:54:53;;;;;;;3.30;2.05;;;;;;;24.31;24.44;98613.22;4808851;29;20515;-79
2022/05/14 09:57:55;;;;;;;5.65;3.10;;;;;;;23.97;24.36;98633.78;4823714;29;20086;-80
2022/05/14 10:00:43;;;;;;;5.03;1.42;;;;;;;22.75;24.53;98629.28;4809431;29;20499;-83
2022/05/14 10:03:35;;;;;;;4.07;1.10;;;;;;;21.46;25.75;98654.69;4824384;29;20038;-82
2022/05/14 10:06:18;;;;;;;6.53;1.20;;;;;;;20.09;28.07;98665.81;4808798;29;20174;-81
2022/05/14 10:09:44;;;;;;;4.35;1.30;;;;;;;20.50;29.11;98636.72;4823818;29;20050;-80
2022/05/14 10:12:19;;;;;;;5.97;1.20;;;;;;;22.43;28.58;98645.84;4769076;30;20154;-80
2022/05/14 10:15:23;;;;;;;3.10;1.20;;;;;;;24.14;27.15;98629.75;4803670;29;20046;-80
2022/05/14 10:18:01;;;;;;;2.35;1.10;;;;;;;25.45;25.10;98625.63;4808520;29;20050;-77
2022/05/14 10:20:37;;;;;;;2.55;1.17;;;;;;;25.88;24.49;98582.75;4809314;29;20057;-82
2022/05/14 10:29:07;;;;;;;5.35;1.30;;;;;;;24.75;24.56;98614.88;4834470;29;20098;-79
2022/05/14 10:31:54;;;;;;;3.50;1.20;;;;;;;23.43;25.22;98600.06;4836057;29;20046;-80
2022/05/14 10:34:49;;;;;;;2.00;1.10;;;;;;;22.47;26.44;98593.50;4829584;29;20396;-79
2022/05/14 10:37:20;;;;;;;5.32;1.58;;;;;;;22.24;26.38;98601.38;4814687;29;20624;-81
2022/05/14 10:39:53;;;;;;;3.58;1.65;;;;;;;21.66;27.07;98613.56;4830495;29;20053;-80
2022/05/14 10:42:43;;;;;;;5.65;1.90;;;;;;;21.31;27.51;98595.78;4796892;29;20423;-79
2022/05/14 10:45:16;;;;;;;4.60;1.35;;;;;;;21.25;28.02;98606.81;4822738;29;20427;-79
2022/05/14 10:47:52;;;;;;;7.13;1.52;;;;;;;21.09;27.97;98611.50;4824291;29;20289;-80
2022/05/14 10:50:21;;;;;;;6.10;2.70;;;;;;;20.90;28.03;98592.53;4824368;29;20054;-78
2022/05/14 10:52:50;;;;;;;11.77;6.53;;;;;;;21.14;28.39;98618.19;4823714;29;20114;-80
2022/05/14 10:55:54;;;;;;;10.32;6.07;;;;;;;21.15;28.42;98603.13;4821624;29;20426;-79
2022/05/14 10:58:45;;;;;;;5.97;2.47;;;;;;;21.04;28.23;98604.78;4821912;29;20141;-79
2022/05/14 11:01:35;;;;;;;4.60;2.03;;;;;;;20.85;28.65;98602.56;4822696;29;20495;-80
2022/05/14 11:04:23;;;;;;;25.52;17.55;;;;;;;20.53;28.86;98566.00;4822923;29;20042;-81
2022/05/14 11:07:05;;;;;;;7.78;2.30;;;;;;;20.65;29.36;98601.28;4824024;29;20145;-80
2022/05/14 11:09:32;;;;;;;21.48;13.48;;;;;;;20.73;29.77;98598.13;4822601;29;20562;-79
2022/05/14 11:12:01;;;;;;;24.85;16.42;;;;;;;20.87;30.24;98594.53;4822048;29;20129;-79
2022/05/14 11:14:39;;;;;;;14.73;9.63;;;;;;;20.92;29.91;98595.06;4791043;29;20126;-78
2022/05/14 11:17:27;;;;;;;9.77;6.88;;;;;;;20.69;30.03;98543.78;4821328;29;20118;-79
2022/05/14 11:20:05;;;;;;;22.50;15.30;;;;;;;21.09;30.35;98588.56;4806388;29;20038;-78
2022/05/14 11:22:40;;;;;;;10.10;6.65;;;;;;;21.10;30.36;98570.88;4822715;29;20506;-80
2022/05/14 11:25:11;;;;;;;9.07;6.00;;;;;;;21.11;30.13;98580.50;4805682;29;20038;-80
2022/05/14 11:27:38;;;;;;;17.07;11.27;;;;;;;21.05;30.77;98576.50;4821450;29;20061;-79
2022/05/14 11:30:15;;;;;;;6.20;2.85;;;;;;;21.16;30.55;98562.50;4829944;29;20776;-81
2022/05/14 11:33:27;;;;;;;6.10;1.77;;;;;;;21.13;30.26;98589.19;4778396;29;20128;-80
2022/05/14 11:35:57;;;;;;;8.02;1.95;;;;;;;20.81;29.60;98547.41;4822576;29;20082;-81
2022/05/14 11:38:27;;;;;;;5.78;3.28;;;;;;;20.87;28.85;98576.88;4792527;29;20046;-79
2022/05/14 11:41:02;;;;;;;11.45;7.60;;;;;;;20.72;28.92;98552.34;4810548;29;20407;-78
2022/05/14 11:43:28;;;;;;;8.80;4.22;;;;;;;20.90;28.58;98574.03;4825475;29;20038;-81
2022/05/14 11:46:35;;;;;;;2.35;1.25;;;;;;;20.82;28.52;98572.88;4825024;29;20464;-80
2022/05/14 11:49:17;;;;;;;7.28;3.83;;;;;;;20.62;28.17;98585.69;4821402;29;20088;-79
2022/05/14 11:52:02;;;;;;;3.83;2.45;;;;;;;20.40;28.24;98558.09;4805653;29;20053;-79
2022/05/14 11:54:37;;;;;;;4.93;2.75;;;;;;;20.52;28.13;98581.97;4822799;29;20531;-81
2022/05/14 11:57:31;;;;;;;6.28;2.13;;;;;;;20.49;28.35;98569.81;4806103;29;20595;-79
2022/05/14 12:00:15;;;;;;;3.67;1.48;;;;;;;20.61;28.39;98566.31;4823319;29;20442;-80
2022/05/14 12:03:21;;;;;;;8.38;2.35;;;;;;;20.39;28.22;98569.63;4809372;29;20081;-82
2022/05/14 12:06:35;;;;;;;5.50;1.88;;;;;;;19.91;28.50;98575.47;4836281;29;20042;-82
2022/05/14 12:09:22;;;;;;;4.07;2.22;;;;;;;19.71;28.61;98584.72;4803725;29;20065;-81
2022/05/14 12:12:25;;;;;;;6.25;1.88;;;;;;;19.74;29.06;98576.59;4809535;29;20038;-81
2022/05/14 12:14:51;;;;;;;8.05;4.18;;;;;;;19.73;29.16;98551.16;4811704;29;20062;-80
2022/05/14 12:17:22;;;;;;;5.35;3.33;;;;;;;19.84;28.87;98561.81;4832917;29;20075;-79
2022/05/14 12:19:58;;;;;;;7.90;2.08;;;;;;;19.64;29.07;98543.84;4837516;29;20069;-81
2022/05/14 12:22:34;;;;;;;9.35;5.28;;;;;;;19.57;29.04;98577.69;4821594;29;20046;-78
2022/05/14 12:25:07;;;;;;;8.82;3.15;;;;;;;19.47;29.25;98577.44;4838979;29;20046;-80